Odd, West Virginia
Current Conditions -  °F | °C
As of 5:51 PM on Friday 19 Dec 2014 (Local Time) from KBKW Reporting Station
Clear Clear  
Wind Chill: 19°   Ceiling: Unl
Heat Index: 26°   Visibility: 10mi
Dew Point: 20°   Wind: 6mph
Humidity: 78%   Direction: 360°N
Pressure: 30.16"   Gusts: NA
Location:  37.59°N, 81.19°W
Report Text: KBKW 192251Z AUTO 36005KT 10SM CLR M03/M07 A3016 RMK AO2 SLP252 T10331067
Loading
Personal Weather Stations






























Interactive Weather Map New forecast layout! Learn more

10-Day Weather Forecast

Advertisements
Track Severe Weather on mobile